Time;durP1;ratioP1;P1;durP2;ratioP2;P2;SDS_P1;SDS_P2;PMS_P1;PMS_P2;Temp;Humidity;BMP_temperature;BMP_pressure;BME280_temperature;BME280_humidity;BME280_pressure;Samples;Min_cycle;Max_cycle;Signal;HPM_P1;HPM_P2
2021/09/01 00:00:45;;;;;;;5.20;3.80;;;;;;;16.05;76.04;98733.17;233819;1201;138752;-65
2021/09/01 00:05:49;;;;;;;4.10;3.20;;;;;;;15.97;75.94;98731.59;233919;1201;138336;-64
2021/09/01 00:10:52;;;;;;;3.20;2.60;;;;;;;15.90;75.94;98732.20;233759;1200;138147;-62
2021/09/01 00:15:56;;;;;;;4.60;2.50;;;;;;;15.88;75.93;98732.02;233761;1201;138754;-64
2021/09/01 00:20:59;;;;;;;4.30;2.60;;;;;;;15.91;75.91;98742.13;233916;1201;138307;-63
2021/09/01 00:26:02;;;;;;;4.90;2.30;;;;;;;15.92;76.02;98744.73;233952;1201;138307;-68
2021/09/01 00:31:05;;;;;;;2.20;1.70;;;;;;;15.91;75.81;98751.74;234011;1198;138681;-68
2021/09/01 00:36:08;;;;;;;2.50;1.90;;;;;;;15.90;75.82;98754.55;234041;1201;138797;-67
2021/09/01 00:41:22;;;;;;;2.80;2.10;;;;;;;15.89;75.67;98756.10;234005;1200;138792;-65
2021/09/01 00:46:25;;;;;;;2.30;2.00;;;;;;;15.83;75.47;98760.70;233941;1201;138891;-64
2021/09/01 00:51:28;;;;;;;2.80;1.70;;;;;;;15.79;75.53;98763.17;233973;1201;138602;-63
2021/09/01 00:56:31;;;;;;;5.10;1.90;;;;;;;15.75;75.58;98768.01;234072;1200;138790;-66
2021/09/01 01:01:36;;;;;;;2.00;1.60;;;;;;;15.75;75.61;98766.81;234043;1201;139048;-65
2021/09/01 01:06:40;;;;;;;2.40;1.40;;;;;;;15.74;75.87;98771.27;233557;1201;138847;-64
2021/09/01 01:12:02;;;;;;;2.20;1.00;;;;;;;15.77;75.98;98773.92;234068;1201;138713;-65
2021/09/01 01:17:06;;;;;;;1.00;0.80;;;;;;;15.76;75.81;98775.08;233846;1199;138389;-64
2021/09/01 01:22:11;;;;;;;1.00;0.90;;;;;;;15.73;75.67;98776.74;233985;1201;138812;-63
2021/09/01 01:27:23;;;;;;;;;;;;;;;15.69;75.63;98779.84;233961;1200;138601;-64
2021/09/01 01:32:26;;;;;;;1.90;1.00;;;;;;;15.66;75.74;98785.30;234092;1199;125646;-65
2021/09/01 01:37:29;;;;;;;0.50;0.40;;;;;;;15.63;75.77;98791.80;233816;1199;137542;-67
2021/09/01 01:42:38;;;;;;;0.70;0.60;;;;;;;15.60;75.85;98793.79;234002;1199;139024;-64
2021/09/01 01:47:41;;;;;;;2.00;0.90;;;;;;;15.61;75.89;98796.23;233814;1201;138361;-63
2021/09/01 01:52:44;;;;;;;0.70;0.60;;;;;;;15.63;75.75;98793.39;233831;1199;138116;-67
2021/09/01 01:57:47;;;;;;;1.20;0.60;;;;;;;15.62;75.75;98793.44;233477;1195;139277;-64
2021/09/01 02:02:50;;;;;;;1.20;0.80;;;;;;;15.61;75.48;98793.34;233970;1200;138603;-64
2021/09/01 02:07:54;;;;;;;2.30;0.80;;;;;;;15.58;75.52;98791.44;233743;1201;139759;-63
2021/09/01 02:12:57;;;;;;;1.00;0.80;;;;;;;15.56;75.59;98789.53;234127;1198;138196;-64
2021/09/01 02:18:00;;;;;;;1.20;1.00;;;;;;;15.51;75.55;98797.23;234160;1198;137526;-67
2021/09/01 02:23:03;;;;;;;1.30;1.00;;;;;;;15.49;75.66;98796.19;233985;1199;138770;-64
2021/09/01 02:28:09;;;;;;;1.60;1.30;;;;;;;15.51;75.57;98806.41;233781;1201;138676;-65
2021/09/01 02:33:12;;;;;;;2.10;1.30;;;;;;;15.49;75.57;98806.23;234007;1199;137598;-64
2021/09/01 02:38:16;;;;;;;1.80;1.40;;;;;;;15.46;75.82;98806.28;233857;1199;138491;-64
2021/09/01 02:43:19;;;;;;;2.00;1.20;;;;;;;15.44;75.59;98809.00;233965;1200;139222;-63
2021/09/01 02:48:21;;;;;;;3.80;1.50;;;;;;;15.44;75.56;98814.70;234039;1200;140146;-62
2021/09/01 02:53:24;;;;;;;2.20;1.50;;;;;;;15.45;75.51;98817.62;233811;1199;139066;-64
2021/09/01 02:58:27;;;;;;;0.80;0.80;;;;;;;15.45;75.49;98819.04;233945;1199;139568;-62
2021/09/01 03:03:30;;;;;;;1.80;1.20;;;;;;;15.42;75.27;98821.89;234003;1199;139499;-64
2021/09/01 03:08:34;;;;;;;1.40;1.20;;;;;;;15.42;75.61;98824.91;233947;1201;138823;-69
2021/09/01 03:13:37;;;;;;;1.70;1.40;;;;;;;15.41;75.57;98829.65;233324;1200;138641;-70
2021/09/01 03:18:40;;;;;;;1.50;1.00;;;;;;;15.36;75.62;98830.55;233310;1199;138879;-62
2021/09/01 03:23:43;;;;;;;14.70;11.90;;;;;;;15.34;75.55;98840.34;233873;1200;139073;-61
2021/09/01 03:28:46;;;;;;;1.60;1.20;;;;;;;15.37;75.68;98835.83;234064;1201;139409;-62
2021/09/01 03:33:49;;;;;;;2.20;1.40;;;;;;;15.34;75.54;98840.70;234118;1198;137957;-62
2021/09/01 03:38:52;;;;;;;1.30;1.10;;;;;;;15.30;75.57;98844.27;234075;1199;139480;-60
2021/09/01 03:43:55;;;;;;;1.00;0.80;;;;;;;15.25;75.63;98847.96;233366;1201;138689;-63
2021/09/01 03:48:58;;;;;;;10.30;9.10;;;;;;;15.22;75.52;98859.63;233386;1200;138986;-60
2021/09/01 03:54:01;;;;;;;2.40;1.90;;;;;;;15.23;75.66;98868.15;234178;1199;138415;-61
2021/09/01 03:59:05;;;;;;;2.30;1.30;;;;;;;15.22;75.66;98871.22;233972;1199;138948;-62
2021/09/01 04:04:10;;;;;;;1.60;1.10;;;;;;;15.19;75.62;98870.06;233977;1199;139271;-60
2021/09/01 04:09:13;;;;;;;2.00;1.00;;;;;;;15.19;75.63;98877.02;233785;1200;138331;-59
2021/09/01 04:14:16;;;;;;;1.20;1.00;;;;;;;15.19;75.66;98882.44;234057;1199;138192;-61
2021/09/01 04:19:19;;;;;;;2.20;0.90;;;;;;;15.17;75.78;98883.79;234093;1199;138515;-62
2021/09/01 04:24:22;;;;;;;2.40;0.80;;;;;;;15.16;75.50;98890.19;233989;1199;139161;-61
2021/09/01 04:29:25;;;;;;;1.80;0.90;;;;;;;15.16;75.49;98895.71;233986;1201;139564;-61
2021/09/01 04:34:28;;;;;;;1.50;1.00;;;;;;;15.16;75.49;98909.48;233224;1200;138440;-62
2021/09/01 04:39:31;;;;;;;1.90;0.70;;;;;;;15.17;75.58;98916.55;234084;1199;138367;-60
2021/09/01 04:44:34;;;;;;;1.70;0.70;;;;;;;15.18;75.43;98925.89;233886;1199;138920;-62
2021/09/01 04:49:37;;;;;;;2.00;0.70;;;;;;;15.15;75.52;98928.11;234097;1199;139281;-61
2021/09/01 04:54:40;;;;;;;1.20;0.80;;;;;;;15.18;75.57;98937.33;234112;1199;139412;-62
2021/09/01 04:59:43;;;;;;;1.60;1.10;;;;;;;15.18;75.41;98939.30;233428;1199;137797;-60
2021/09/01 05:04:46;;;;;;;3.10;1.20;;;;;;;15.18;75.44;98945.80;233919;1199;139000;-63
2021/09/01 05:09:49;;;;;;;2.60;1.00;;;;;;;15.20;75.49;98948.43;233915;1199;139278;-65
2021/09/01 05:14:53;;;;;;;1.80;1.40;;;;;;;15.20;75.51;98951.82;233773;1200;138482;-61
2021/09/01 05:19:56;;;;;;;2.00;1.60;;;;;;;15.20;75.56;98954.85;233750;1199;138391;-59
2021/09/01 05:25:11;;;;;;;2.40;1.90;;;;;;;15.21;75.40;98958.55;233891;1199;138976;-61
2021/09/01 05:30:15;;;;;;;2.20;1.80;;;;;;;15.19;75.38;98965.84;233897;1201;138252;-61
2021/09/01 05:35:18;;;;;;;3.40;1.80;;;;;;;15.19;75.53;98963.37;233686;1200;139815;-61
2021/09/01 05:40:22;;;;;;;2.50;2.20;;;;;;;15.21;75.57;98963.02;233862;1201;138610;-61
2021/09/01 05:45:26;;;;;;;4.50;2.20;;;;;;;15.23;75.46;98967.66;233945;1200;139747;-62
2021/09/01 05:50:29;;;;;;;4.50;2.20;;;;;;;15.23;75.48;98968.25;233871;1201;138266;-60
2021/09/01 05:55:35;;;;;;;3.10;2.10;;;;;;;15.25;75.56;98971.27;233857;1200;138502;-60
2021/09/01 06:00:40;;;;;;;3.20;2.10;;;;;;;15.32;75.56;98981.78;233876;1199;139080;-59
2021/09/01 06:05:45;;;;;;;2.30;2.10;;;;;;;15.35;75.42;98985.96;234114;1199;138900;-63
2021/09/01 06:10:52;;;;;;;2.20;1.90;;;;;;;15.37;75.32;98986.50;233870;1200;138325;-59
2021/09/01 06:15:56;;;;;;;2.20;1.90;;;;;;;15.34;75.20;98996.21;233980;1200;138477;-60
2021/09/01 06:20:59;;;;;;;1.90;1.60;;;;;;;15.36;75.27;98998.09;233823;1198;140106;-61
2021/09/01 06:26:03;;;;;;;2.50;1.60;;;;;;;15.40;75.32;99004.00;234074;1199;140179;-62
2021/09/01 06:31:06;;;;;;;2.30;1.70;;;;;;;15.45;75.25;99009.35;233920;1200;139192;-60
2021/09/01 06:36:10;;;;;;;6.10;4.30;;;;;;;15.41;75.20;99015.02;234055;1200;138456;-61
2021/09/01 06:41:13;;;;;;;3.00;1.40;;;;;;;15.36;74.98;99016.78;234024;1199;139158;-60
2021/09/01 06:46:16;;;;;;;1.60;1.30;;;;;;;15.38;75.06;99026.15;233964;1200;140193;-63
2021/09/01 06:51:19;;;;;;;2.10;1.20;;;;;;;15.41;75.07;99027.55;233866;1200;138214;-61
2021/09/01 06:56:22;;;;;;;3.10;1.20;;;;;;;15.39;75.06;99033.95;233970;1200;138933;-62
2021/09/01 07:01:31;;;;;;;1.40;1.30;;;;;;;15.39;75.03;99034.27;233827;1199;139839;-61
2021/09/01 07:06:35;;;;;;;2.10;1.30;;;;;;;15.42;75.22;99039.06;233977;1200;139491;-63
2021/09/01 07:11:38;;;;;;;1.90;1.50;;;;;;;15.43;75.22;99047.72;234145;1199;139226;-63
2021/09/01 07:16:41;;;;;;;2.30;1.10;;;;;;;15.41;75.20;99055.73;233979;1199;140003;-61
2021/09/01 07:21:44;;;;;;;1.50;1.10;;;;;;;15.36;75.13;99056.52;233993;1199;139145;-62
2021/09/01 07:26:47;;;;;;;4.00;3.60;;;;;;;15.36;75.25;99065.79;233703;1200;139034;-61
2021/09/01 07:31:50;;;;;;;2.80;1.20;;;;;;;15.42;75.46;99064.98;233283;1200;138915;-60
2021/09/01 07:36:53;;;;;;;1.10;0.90;;;;;;;15.45;75.38;99073.34;233779;1196;138812;-59
2021/09/01 07:41:56;;;;;;;0.90;0.70;;;;;;;15.48;75.38;99078.94;233307;1200;140188;-62
2021/09/01 07:46:59;;;;;;;1.50;0.90;;;;;;;15.52;75.17;99090.60;233672;1200;139586;-64
2021/09/01 07:52:03;;;;;;;1.00;0.90;;;;;;;15.56;75.13;99097.48;233598;1199;142276;-63
2021/09/01 07:57:06;;;;;;;2.40;0.80;;;;;;;15.57;75.20;99105.25;233979;1199;139265;-61
2021/09/01 08:02:09;;;;;;;25.30;17.50;;;;;;;15.59;75.04;99112.71;233924;1199;139807;-62
2021/09/01 08:07:12;;;;;;;1.00;0.90;;;;;;;15.67;75.19;99118.23;233857;1200;140080;-61
2021/09/01 08:12:15;;;;;;;3.90;1.30;;;;;;;15.71;75.29;99120.02;233986;1200;138430;-61
2021/09/01 08:17:18;;;;;;;2.00;1.50;;;;;;;15.75;75.28;99126.48;233909;1200;138258;-61
2021/09/01 08:22:21;;;;;;;2.00;1.60;;;;;;;15.80;75.01;99135.23;233883;1200;139159;-60
2021/09/01 08:27:26;;;;;;;11.50;8.60;;;;;;;15.87;74.99;99138.92;233907;1199;138897;-60
2021/09/01 08:32:29;;;;;;;137.30;96.00;;;;;;;15.90;74.92;99139.28;233884;1198;138374;-61
2021/09/01 08:37:32;;;;;;;2.60;1.90;;;;;;;15.95;74.97;99147.98;234135;1198;138483;-61
2021/09/01 08:42:36;;;;;;;2.70;1.90;;;;;;;15.95;75.02;99155.60;233790;1198;140956;-61
2021/09/01 08:47:40;;;;;;;3.20;2.20;;;;;;;15.96;74.85;99163.11;234022;1199;139884;-63
2021/09/01 08:52:43;;;;;;;3.50;2.10;;;;;;;15.93;74.69;99175.32;234031;1195;139569;-63
2021/09/01 08:57:46;;;;;;;3.70;2.60;;;;;;;15.90;74.55;99180.73;234185;1198;139636;-60
2021/09/01 09:02:57;;;;;;;5.20;4.30;;;;;;;15.89;74.65;99186.35;233964;1198;138559;-62
2021/09/01 09:08:00;;;;;;;9.00;4.90;;;;;;;15.92;74.83;99195.45;233893;1199;139591;-60
2021/09/01 09:13:07;;;;;;;8.70;4.40;;;;;;;15.98;74.79;99199.95;234020;1198;139485;-62
2021/09/01 09:18:28;;;;;;;5.50;4.70;;;;;;;16.03;74.84;99201.83;234028;1198;139253;-61
2021/09/01 09:23:31;;;;;;;9.00;5.70;;;;;;;16.06;74.59;99206.81;234035;1198;138567;-60
2021/09/01 09:28:35;;;;;;;6.60;5.20;;;;;;;16.06;74.57;99203.21;234129;1199;139426;-61
2021/09/01 09:33:40;;;;;;;8.20;5.80;;;;;;;16.12;74.69;99205.63;234116;1198;139597;-62
2021/09/01 09:38:47;;;;;;;10.40;6.40;;;;;;;16.25;74.94;99209.02;234203;1198;138648;-62
2021/09/01 09:43:52;;;;;;;9.60;6.70;;;;;;;16.33;74.78;99209.76;233367;1198;138394;-60
2021/09/01 09:49:06;;;;;;;13.20;6.40;;;;;;;16.38;74.75;99210.68;233967;1198;138599;-60
2021/09/01 09:54:14;;;;;;;8.10;5.60;;;;;;;16.43;74.63;99218.59;234220;1198;139533;-61
2021/09/01 09:59:21;;;;;;;9.30;7.20;;;;;;;16.52;74.56;99223.73;234190;1198;139877;-61
2021/09/01 10:04:28;;;;;;;12.20;8.20;;;;;;;16.59;74.27;99221.42;233990;1198;140025;-60
2021/09/01 10:09:32;;;;;;;11.90;8.60;;;;;;;16.63;74.18;99224.98;233937;1199;139235;-61
2021/09/01 10:14:35;;;;;;;12.30;7.50;;;;;;;16.69;74.05;99233.65;233869;1199;138475;-62
2021/09/01 10:19:39;;;;;;;17.90;8.10;;;;;;;16.75;73.98;99234.21;233965;1199;139604;-60
2021/09/01 10:24:44;;;;;;;12.00;7.80;;;;;;;16.82;73.93;99241.94;234158;1195;139990;-60
2021/09/01 10:30:00;;;;;;;9.80;7.10;;;;;;;16.89;73.88;99248.48;234300;1198;138519;-62
2021/09/01 10:35:15;;;;;;;11.90;7.30;;;;;;;16.95;73.43;99251.91;234039;1198;139607;-61
2021/09/01 10:40:21;;;;;;;9.40;6.40;;;;;;;16.97;73.31;99254.02;234167;1198;139787;-61
2021/09/01 10:45:30;;;;;;;9.50;6.80;;;;;;;17.08;73.32;99258.64;234065;1198;140146;-61
2021/09/01 10:50:52;;;;;;;12.20;7.80;;;;;;;17.15;73.09;99268.83;234194;1198;139586;-61
2021/09/01 10:56:13;;;;;;;11.90;8.10;;;;;;;17.23;72.80;99277.27;234265;1198;138324;-61
2021/09/01 11:01:17;;;;;;;190.10;146.10;;;;;;;17.25;72.57;99280.88;234167;1198;139790;-61
2021/09/01 11:06:22;;;;;;;13.80;8.10;;;;;;;17.29;72.52;99292.92;234171;1199;138986;-60
2021/09/01 11:11:40;;;;;;;10.90;7.60;;;;;;;17.35;72.40;99300.98;234048;1199;139806;-64
2021/09/01 11:16:43;;;;;;;98.20;73.20;;;;;;;17.45;72.22;99304.45;234181;1198;141585;-61
2021/09/01 11:21:47;;;;;;;16.50;8.30;;;;;;;17.55;72.42;99311.80;234239;1198;138504;-64
2021/09/01 11:26:55;;;;;;;10.70;7.90;;;;;;;17.62;72.16;99319.65;234184;1198;139979;-60
2021/09/01 11:31:59;;;;;;;7.90;6.30;;;;;;;17.61;71.76;99312.21;233968;1198;138811;-60
2021/09/01 11:37:03;;;;;;;9.40;7.00;;;;;;;17.59;71.25;99324.39;234302;1198;138824;-61
2021/09/01 11:42:06;;;;;;;10.70;6.30;;;;;;;17.57;70.95;99327.98;234339;1198;139561;-62
2021/09/01 11:47:19;;;;;;;9.30;6.30;;;;;;;17.65;71.03;99327.34;234050;1198;140329;-60
2021/09/01 11:52:30;;;;;;;8.50;5.00;;;;;;;17.86;70.60;99330.37;233941;1200;139313;-61
2021/09/01 11:57:33;;;;;;;80.20;60.60;;;;;;;17.91;70.29;99330.63;234173;1198;139408;-61
2021/09/01 12:02:36;;;;;;;10.30;5.80;;;;;;;17.97;70.16;99331.91;234228;1198;139137;-61
2021/09/01 12:07:39;;;;;;;8.70;5.30;;;;;;;18.00;69.40;99333.66;234005;1198;139284;-62
2021/09/01 12:12:42;;;;;;;8.90;6.70;;;;;;;17.99;69.07;99332.48;233862;1199;138734;-61
2021/09/01 12:18:06;;;;;;;9.10;6.90;;;;;;;17.96;68.70;99326.02;234265;1198;138803;-63
2021/09/01 12:23:16;;;;;;;10.10;6.10;;;;;;;18.02;68.67;99326.42;234127;1198;139456;-61
2021/09/01 12:28:19;;;;;;;10.40;7.50;;;;;;;18.06;68.41;99325.33;234005;1199;138724;-59
2021/09/01 12:33:22;;;;;;;10.40;8.00;;;;;;;18.09;68.38;99332.77;234007;1199;138505;-61
2021/09/01 12:38:27;;;;;;;11.50;8.10;;;;;;;18.09;68.07;99336.38;234164;1198;139214;-61
2021/09/01 12:43:38;;;;;;;12.40;8.10;;;;;;;18.10;67.79;99346.89;234062;1198;139252;-59
2021/09/01 12:48:42;;;;;;;10.00;6.60;;;;;;;18.18;67.67;99341.71;234113;1199;139414;-60
2021/09/01 12:53:47;;;;;;;38.80;27.60;;;;;;;18.09;67.13;99341.39;234172;1199;139165;-60
2021/09/01 12:58:49;;;;;;;10.10;7.60;;;;;;;18.02;67.04;99346.88;234176;1199;138457;-61
2021/09/01 13:03:52;;;;;;;8.40;5.40;;;;;;;17.94;66.95;99340.41;234274;1198;139033;-61
2021/09/01 13:08:55;;;;;;;8.90;5.70;;;;;;;17.89;66.98;99346.60;234037;1198;139074;-60
2021/09/01 13:13:58;;;;;;;6.60;5.20;;;;;;;17.87;67.06;99347.67;233935;1198;138796;-61
2021/09/01 13:19:01;;;;;;;110.20;79.40;;;;;;;18.00;67.07;99356.38;234023;1198;137884;-61
2021/09/01 13:24:06;;;;;;;14.30;9.30;;;;;;;18.17;66.79;99354.04;233965;1200;138412;-62
2021/09/01 13:29:09;;;;;;;10.70;6.90;;;;;;;18.26;66.35;99360.60;233954;1198;139161;-65
2021/09/01 13:34:12;;;;;;;8.80;6.20;;;;;;;18.32;66.29;99363.45;233918;1201;138354;-64
2021/09/01 13:39:15;;;;;;;11.40;7.10;;;;;;;18.38;66.07;99361.11;234031;1197;139087;-63
2021/09/01 13:44:18;;;;;;;8.60;6.00;;;;;;;18.55;66.25;99360.69;234187;1198;138588;-62
2021/09/01 13:49:21;;;;;;;17.10;7.80;;;;;;;18.67;66.22;99360.33;234029;1198;138233;-64
2021/09/01 13:54:25;;;;;;;19.70;8.00;;;;;;;18.70;66.54;99356.44;234169;1198;138663;-62
2021/09/01 13:59:29;;;;;;;8.90;5.20;;;;;;;18.73;66.51;99365.36;234171;1198;139744;-63
2021/09/01 14:04:32;;;;;;;8.50;6.00;;;;;;;18.75;65.85;99367.40;234004;1198;138638;-61
2021/09/01 14:09:35;;;;;;;11.60;6.10;;;;;;;18.73;65.06;99369.54;234018;1199;140476;-61
2021/09/01 14:14:54;;;;;;;27.10;11.50;;;;;;;18.69;64.94;99367.30;234203;1198;138906;-61
2021/09/01 14:19:57;;;;;;;22.60;9.10;;;;;;;18.67;64.64;99368.52;234150;1198;139616;-63
2021/09/01 14:25:02;;;;;;;11.20;6.90;;;;;;;18.63;64.77;99367.98;234144;1198;138650;-61
2021/09/01 14:30:06;;;;;;;11.10;6.40;;;;;;;18.62;64.72;99374.27;234330;1198;139481;-61
2021/09/01 14:35:11;;;;;;;8.70;5.30;;;;;;;18.58;64.82;99378.55;234243;1198;138470;-62
2021/09/01 14:40:14;;;;;;;9.20;5.50;;;;;;;18.49;64.21;99388.19;233894;1198;139189;-61
2021/09/01 14:45:17;;;;;;;11.30;5.30;;;;;;;18.31;64.14;99393.66;233894;1201;138250;-61
2021/09/01 14:50:21;;;;;;;11.70;6.00;;;;;;;18.13;64.26;99394.35;234109;1199;139595;-62
2021/09/01 14:55:25;;;;;;;11.10;5.30;;;;;;;18.00;64.50;99390.89;233648;1201;138629;-61
2021/09/01 15:00:29;;;;;;;13.10;5.80;;;;;;;17.94;64.63;99393.20;234051;1200;141549;-61
2021/09/01 15:05:34;;;;;;;10.70;5.70;;;;;;;17.91;64.95;99393.98;233769;1201;140772;-63
2021/09/01 15:10:37;;;;;;;10.20;5.80;;;;;;;17.86;64.82;99396.27;233612;1196;138144;-61
2021/09/01 15:15:40;;;;;;;10.50;5.70;;;;;;;17.75;64.68;99398.28;234064;1200;139580;-62
2021/09/01 15:20:43;;;;;;;13.30;5.50;;;;;;;17.61;64.82;99398.52;234043;1200;138718;-61
2021/09/01 15:25:46;;;;;;;10.30;5.60;;;;;;;17.52;65.06;99397.34;234075;1200;139349;-61
2021/09/01 15:30:54;;;;;;;8.10;5.50;;;;;;;17.45;65.20;99393.98;234059;1199;138889;-61
2021/09/01 15:35:57;;;;;;;10.60;4.90;;;;;;;17.39;65.45;99395.38;233803;1199;139486;-62
2021/09/01 15:41:02;;;;;;;11.00;5.40;;;;;;;17.36;65.57;99386.11;234104;1199;139137;-63
2021/09/01 15:46:10;;;;;;;7.80;5.40;;;;;;;17.38;65.75;99382.92;233808;1200;139832;-61
2021/09/01 15:51:14;;;;;;;10.00;6.30;;;;;;;17.40;65.94;99385.46;234078;1199;138944;-61
2021/09/01 15:56:18;;;;;;;13.40;5.60;;;;;;;17.38;66.01;99384.85;233762;1199;138747;-61
2021/09/01 16:01:22;;;;;;;10.00;5.40;;;;;;;17.33;66.16;99380.44;234118;1199;139107;-61
2021/09/01 16:06:26;;;;;;;13.10;5.40;;;;;;;17.28;66.09;99381.08;234219;1199;139168;-63
2021/09/01 16:11:31;;;;;;;11.00;5.60;;;;;;;17.28;66.31;99379.09;233824;1200;139144;-63
2021/09/01 16:16:39;;;;;;;11.80;5.70;;;;;;;17.32;66.56;99383.11;233988;1201;139026;-62
2021/09/01 16:21:52;;;;;;;8.10;5.50;;;;;;;17.35;66.44;99384.43;234128;1199;138702;-62
2021/09/01 16:26:55;;;;;;;14.80;7.40;;;;;;;17.36;66.65;99388.48;234115;1199;138892;-63
2021/09/01 16:31:59;;;;;;;8.50;5.10;;;;;;;17.36;66.42;99383.10;234134;1199;138208;-62
2021/09/01 16:37:03;;;;;;;8.30;5.50;;;;;;;17.31;66.50;99387.04;234159;1201;139122;-63
2021/09/01 16:42:06;;;;;;;21.60;16.40;;;;;;;17.28;66.66;99387.73;234022;1201;139019;-62
2021/09/01 16:47:14;;;;;;;10.60;5.70;;;;;;;17.29;66.71;99390.65;233696;1201;139348;-62
2021/09/01 16:52:18;;;;;;;10.40;5.90;;;;;;;17.30;66.65;99389.65;234126;1199;139325;-63
2021/09/01 16:57:39;;;;;;;10.70;6.00;;;;;;;17.29;66.73;99394.08;234149;1199;138264;-64
2021/09/01 17:02:47;;;;;;;9.80;5.70;;;;;;;17.24;66.54;99400.71;234103;1199;138806;-63
2021/09/01 17:07:54;;;;;;;10.70;6.40;;;;;;;17.17;66.63;99403.13;234049;1200;140682;-63
2021/09/01 17:12:57;;;;;;;11.50;5.70;;;;;;;17.09;66.64;99406.70;234024;1198;138834;-59
2021/09/01 17:18:00;;;;;;;10.80;5.10;;;;;;;17.01;66.90;99407.34;234298;1199;138690;-65
2021/09/01 17:23:04;;;;;;;9.90;5.60;;;;;;;16.98;67.09;99413.89;234106;1199;139784;-63
2021/09/01 17:28:09;;;;;;;14.80;6.20;;;;;;;16.95;67.18;99418.74;233817;1200;139011;-64
2021/09/01 17:33:14;;;;;;;93.80;69.50;;;;;;;16.90;67.29;99425.06;234128;1199;139949;-66
2021/09/01 17:38:20;;;;;;;21.00;11.80;;;;;;;16.87;67.34;99440.05;234078;1200;138474;-66
2021/09/01 17:43:24;;;;;;;125.00;104.30;;;;;;;16.82;67.16;99440.25;234017;1200;138778;-66
2021/09/01 17:48:28;;;;;;;10.60;6.00;;;;;;;16.76;67.20;99446.41;234206;1201;140348;-65
2021/09/01 17:53:32;;;;;;;19.10;9.60;;;;;;;16.70;67.28;99453.05;234104;1201;139237;-65
2021/09/01 17:58:36;;;;;;;20.80;11.90;;;;;;;16.62;67.47;99457.42;234126;1201;138601;-68
2021/09/01 18:03:39;;;;;;;9.40;5.80;;;;;;;16.59;67.62;99464.31;234140;1199;138271;-66
2021/09/01 18:08:43;;;;;;;140.60;103.60;;;;;;;16.55;67.81;99471.38;234179;1200;138058;-67
2021/09/01 18:13:46;;;;;;;14.50;7.20;;;;;;;16.53;68.06;99478.08;233605;1201;140715;-68
2021/09/01 18:18:49;;;;;;;12.30;7.50;;;;;;;16.58;68.06;99483.00;234129;1200;139046;-64
2021/09/01 18:23:53;;;;;;;16.80;8.30;;;;;;;16.63;68.34;99489.42;234237;1199;139756;-66
2021/09/01 18:29:01;;;;;;;10.70;6.70;;;;;;;16.63;68.23;99490.86;233752;1199;228025;-66
2021/09/01 18:34:04;;;;;;;13.00;7.40;;;;;;;16.57;68.04;99497.27;233374;1199;138498;-68
2021/09/01 18:39:07;;;;;;;8.70;6.20;;;;;;;16.52;67.97;99499.23;234102;1201;138655;-67
2021/09/01 18:44:10;;;;;;;11.30;5.80;;;;;;;16.46;68.06;99498.98;234027;1199;140067;-64
2021/09/01 18:49:14;;;;;;;13.90;6.00;;;;;;;16.42;68.26;99506.13;234047;1200;139596;-67
2021/09/01 18:54:17;;;;;;;10.90;6.10;;;;;;;16.42;68.30;99503.30;234191;1199;139660;-66
2021/09/01 18:59:20;;;;;;;11.50;6.90;;;;;;;16.38;68.37;99504.83;233449;1199;138634;-66
2021/09/01 19:04:25;;;;;;;12.00;7.40;;;;;;;16.35;68.23;99506.70;233974;1200;138449;-65
2021/09/01 19:09:57;;;;;;;16.00;6.70;;;;;;;16.30;68.38;99506.53;234030;1200;139238;-66
2021/09/01 19:15:04;;;;;;;14.40;6.50;;;;;;;16.25;68.48;99514.42;234067;1199;138117;-67
2021/09/01 19:20:13;;;;;;;10.30;6.30;;;;;;;16.22;68.66;99515.35;233622;1201;140184;-68
2021/09/01 19:25:17;;;;;;;16.10;7.20;;;;;;;16.22;68.76;99517.16;233394;1201;139208;-64
2021/09/01 19:30:20;;;;;;;14.10;7.30;;;;;;;16.24;68.73;99522.45;234176;1199;139033;-65
2021/09/01 19:35:24;;;;;;;11.40;6.70;;;;;;;16.24;68.77;99521.69;234012;1200;138139;-65
2021/09/01 19:40:27;;;;;;;11.90;7.10;;;;;;;16.21;68.81;99527.80;233920;1200;138802;-66
2021/09/01 19:45:30;;;;;;;15.10;7.30;;;;;;;16.18;68.81;99532.92;234023;1200;138983;-67
2021/09/01 19:50:34;;;;;;;13.70;7.30;;;;;;;16.14;68.85;99541.61;234059;1200;139829;-65
2021/09/01 19:55:37;;;;;;;13.40;7.10;;;;;;;16.15;69.12;99542.46;234003;1200;139422;-69
2021/09/01 20:00:40;;;;;;;14.00;7.40;;;;;;;16.18;69.17;99540.77;233528;1200;138778;-65
2021/09/01 20:05:44;;;;;;;14.20;9.90;;;;;;;16.15;69.07;99539.22;233844;1200;138355;-66
2021/09/01 20:10:48;;;;;;;211.20;137.50;;;;;;;16.13;69.11;99546.36;234056;1199;138513;-66
2021/09/01 20:15:53;;;;;;;16.60;8.50;;;;;;;16.15;69.21;99548.36;234012;1198;139899;-65
2021/09/01 20:20:56;;;;;;;14.10;8.90;;;;;;;16.14;69.19;99545.22;234094;1198;139280;-66
2021/09/01 20:25:59;;;;;;;15.20;7.90;;;;;;;16.15;69.21;99551.57;233890;1198;138615;-64
2021/09/01 20:31:02;;;;;;;19.50;8.60;;;;;;;16.14;69.46;99549.35;233810;1199;138744;-69
2021/09/01 20:36:06;;;;;;;17.30;8.80;;;;;;;16.10;69.29;99566.46;234059;1199;139455;-66
2021/09/01 20:41:14;;;;;;;14.00;7.80;;;;;;;16.00;69.15;99574.23;234008;1199;138588;-67
2021/09/01 20:46:22;;;;;;;20.10;8.70;;;;;;;15.91;69.10;99575.77;233847;1199;139128;-65
2021/09/01 20:51:26;;;;;;;17.10;9.50;;;;;;;15.88;69.25;99581.73;233996;1201;139334;-67
2021/09/01 20:56:30;;;;;;;14.50;8.30;;;;;;;15.91;69.47;99588.70;233643;1200;139067;-67
2021/09/01 21:01:35;;;;;;;18.90;11.40;;;;;;;15.85;69.40;99593.90;233901;1200;138245;-63
2021/09/01 21:06:39;;;;;;;13.80;8.50;;;;;;;15.80;69.54;99593.75;233919;1199;138896;-65
2021/09/01 21:11:42;;;;;;;70.30;44.40;;;;;;;15.76;69.53;99599.96;234112;1198;141716;-63
2021/09/01 21:16:48;;;;;;;17.20;10.50;;;;;;;15.78;69.60;99598.20;233978;1198;139040;-65
2021/09/01 21:21:54;;;;;;;18.50;9.80;;;;;;;15.75;69.49;99601.50;233871;1200;138513;-67
2021/09/01 21:26:57;;;;;;;;;;;;;;;15.76;69.67;99610.52;233686;1200;138033;-65
2021/09/01 21:32:01;;;;;;;15.80;9.60;;;;;;;15.75;69.78;99607.23;233945;1198;124634;-66
2021/09/01 21:37:08;;;;;;;16.10;9.60;;;;;;;15.70;69.76;99602.23;233889;1199;138909;-66
2021/09/01 21:42:11;;;;;;;16.10;9.60;;;;;;;15.67;69.75;99602.95;234101;1200;139291;-66
2021/09/01 21:47:18;;;;;;;15.50;9.70;;;;;;;15.67;69.79;99606.37;234006;1198;138761;-67
2021/09/01 21:52:22;;;;;;;17.30;10.10;;;;;;;15.65;69.89;99609.23;234042;1198;139284;-65
2021/09/01 21:57:25;;;;;;;16.90;9.70;;;;;;;15.64;70.16;99607.10;233660;1198;140138;-67
2021/09/01 22:02:28;;;;;;;18.60;9.50;;;;;;;15.62;70.31;99607.30;233647;1199;138031;-66
2021/09/01 22:07:33;;;;;;;18.40;10.70;;;;;;;15.66;70.23;99612.02;232936;1199;140890;-66
2021/09/01 22:12:38;;;;;;;16.20;8.80;;;;;;;15.67;70.31;99611.95;233614;1200;139812;-66
2021/09/01 22:17:45;;;;;;;15.70;9.50;;;;;;;15.68;70.39;99608.81;233908;1200;138557;-68
2021/09/01 22:22:49;;;;;;;14.30;9.00;;;;;;;15.68;70.48;99606.16;233902;1197;140032;-67
2021/09/01 22:27:53;;;;;;;15.60;9.20;;;;;;;15.66;70.65;99610.00;233933;1200;138437;-65
2021/09/01 22:32:57;;;;;;;14.30;8.80;;;;;;;15.66;70.34;99610.91;233576;1199;140723;-63
2021/09/01 22:38:00;;;;;;;16.60;10.60;;;;;;;15.66;70.49;99611.79;233257;1195;140412;-64
2021/09/01 22:43:04;;;;;;;14.80;9.50;;;;;;;15.65;70.58;99613.27;234001;1198;138661;-63
2021/09/01 22:48:09;;;;;;;17.60;9.60;;;;;;;15.64;70.49;99616.57;233752;1199;139415;-65
2021/09/01 22:53:12;;;;;;;14.00;9.00;;;;;;;15.63;70.47;99615.59;233185;1199;138130;-65
2021/09/01 22:58:16;;;;;;;17.70;11.90;;;;;;;15.60;70.49;99603.27;233967;1199;140100;-63
2021/09/01 23:03:19;;;;;;;473.00;231.90;;;;;;;15.58;70.53;99596.28;233978;1200;139337;-70
2021/09/01 23:08:22;;;;;;;36.60;21.20;;;;;;;15.63;70.80;99592.16;233964;1198;139577;-65